sensor_id;sensor_type;location;lat;lon;timestamp;P1;durP1;ratioP1;P2;durP2;ratioP2
64938;SDS011;51453;47.738;7.420;2023-09-07T00:01:29;6.55;;;4.93;;
64938;SDS011;51453;47.738;7.420;2023-09-07T00:03:55;6.00;;;4.85;;
64938;SDS011;51453;47.738;7.420;2023-09-07T00:06:21;4.93;;;4.50;;
64938;SDS011;51453;47.738;7.420;2023-09-07T00:08:46;4.53;;;4.13;;
64938;SDS011;51453;47.738;7.420;2023-09-07T00:11:12;5.03;;;4.53;;
64938;SDS011;51453;47.738;7.420;2023-09-07T00:13:38;5.90;;;4.80;;
64938;SDS011;51453;47.738;7.420;2023-09-07T00:16:04;7.57;;;4.88;;
64938;SDS011;51453;47.738;7.420;2023-09-07T00:18:30;7.35;;;4.55;;
64938;SDS011;51453;47.738;7.420;2023-09-07T00:20:57;5.85;;;4.88;;
64938;SDS011;51453;47.738;7.420;2023-09-07T00:23:23;7.38;;;4.75;;
64938;SDS011;51453;47.738;7.420;2023-09-07T00:25:49;5.28;;;4.78;;
64938;SDS011;51453;47.738;7.420;2023-09-07T00:28:14;6.15;;;4.82;;
64938;SDS011;51453;47.738;7.420;2023-09-07T00:30:40;5.75;;;4.78;;
64938;SDS011;51453;47.738;7.420;2023-09-07T00:33:07;7.43;;;5.07;;
64938;SDS011;51453;47.738;7.420;2023-09-07T00:35:32;6.40;;;5.20;;
64938;SDS011;51453;47.738;7.420;2023-09-07T00:37:59;6.88;;;4.68;;
64938;SDS011;51453;47.738;7.420;2023-09-07T00:40:25;6.25;;;5.13;;
64938;SDS011;51453;47.738;7.420;2023-09-07T00:42:51;5.30;;;4.80;;
64938;SDS011;51453;47.738;7.420;2023-09-07T00:45:17;6.10;;;4.90;;
64938;SDS011;51453;47.738;7.420;2023-09-07T00:47:43;8.10;;;5.13;;
64938;SDS011;51453;47.738;7.420;2023-09-07T00:50:10;6.38;;;5.00;;
64938;SDS011;51453;47.738;7.420;2023-09-07T00:52:39;6.93;;;5.28;;
64938;SDS011;51453;47.738;7.420;2023-09-07T00:55:07;7.68;;;5.07;;
64938;SDS011;51453;47.738;7.420;2023-09-07T00:57:34;6.47;;;4.97;;
64938;SDS011;51453;47.738;7.420;2023-09-07T00:59:59;5.80;;;5.20;;
64938;SDS011;51453;47.738;7.420;2023-09-07T01:02:25;6.03;;;4.97;;
64938;SDS011;51453;47.738;7.420;2023-09-07T01:04:51;8.98;;;5.13;;
64938;SDS011;51453;47.738;7.420;2023-09-07T01:07:19;5.63;;;4.60;;
64938;SDS011;51453;47.738;7.420;2023-09-07T01:09:49;5.60;;;5.00;;
64938;SDS011;51453;47.738;7.420;2023-09-07T01:12:17;9.40;;;5.00;;
64938;SDS011;51453;47.738;7.420;2023-09-07T01:14:43;7.57;;;4.80;;
64938;SDS011;51453;47.738;7.420;2023-09-07T01:17:09;5.68;;;4.90;;
64938;SDS011;51453;47.738;7.420;2023-09-07T01:19:36;6.30;;;4.90;;
64938;SDS011;51453;47.738;7.420;2023-09-07T01:22:02;8.90;;;5.00;;
64938;SDS011;51453;47.738;7.420;2023-09-07T01:24:29;6.78;;;5.15;;
64938;SDS011;51453;47.738;7.420;2023-09-07T01:26:59;6.13;;;4.85;;
64938;SDS011;51453;47.738;7.420;2023-09-07T01:29:28;5.72;;;4.88;;
64938;SDS011;51453;47.738;7.420;2023-09-07T01:31:54;7.38;;;4.82;;
64938;SDS011;51453;47.738;7.420;2023-09-07T01:34:20;7.15;;;5.30;;
64938;SDS011;51453;47.738;7.420;2023-09-07T01:36:46;8.20;;;5.35;;
64938;SDS011;51453;47.738;7.420;2023-09-07T01:39:11;6.50;;;4.80;;
64938;SDS011;51453;47.738;7.420;2023-09-07T01:41:37;6.43;;;5.15;;
64938;SDS011;51453;47.738;7.420;2023-09-07T01:44:03;5.50;;;4.75;;
64938;SDS011;51453;47.738;7.420;2023-09-07T01:46:28;5.68;;;5.07;;
64938;SDS011;51453;47.738;7.420;2023-09-07T01:48:54;6.13;;;5.53;;
64938;SDS011;51453;47.738;7.420;2023-09-07T01:51:20;7.53;;;5.57;;
64938;SDS011;51453;47.738;7.420;2023-09-07T01:53:48;5.82;;;4.80;;
64938;SDS011;51453;47.738;7.420;2023-09-07T01:56:16;6.43;;;5.13;;
64938;SDS011;51453;47.738;7.420;2023-09-07T01:58:41;5.75;;;5.15;;
64938;SDS011;51453;47.738;7.420;2023-09-07T02:01:09;7.13;;;5.40;;
64938;SDS011;51453;47.738;7.420;2023-09-07T02:03:55;6.80;;;5.03;;
64938;SDS011;51453;47.738;7.420;2023-09-07T02:06:20;6.05;;;5.30;;
64938;SDS011;51453;47.738;7.420;2023-09-07T02:08:46;8.00;;;5.32;;
64938;SDS011;51453;47.738;7.420;2023-09-07T02:11:12;6.38;;;5.13;;
64938;SDS011;51453;47.738;7.420;2023-09-07T02:13:37;7.43;;;5.05;;
64938;SDS011;51453;47.738;7.420;2023-09-07T02:16:06;6.63;;;5.10;;
64938;SDS011;51453;47.738;7.420;2023-09-07T02:18:32;6.85;;;5.35;;
64938;SDS011;51453;47.738;7.420;2023-09-07T02:21:04;8.32;;;5.20;;
64938;SDS011;51453;47.738;7.420;2023-09-07T02:23:31;7.35;;;5.05;;
64938;SDS011;51453;47.738;7.420;2023-09-07T02:25:57;7.18;;;5.35;;
64938;SDS011;51453;47.738;7.420;2023-09-07T02:28:23;6.28;;;5.13;;
64938;SDS011;51453;47.738;7.420;2023-09-07T02:30:49;5.78;;;5.18;;
64938;SDS011;51453;47.738;7.420;2023-09-07T02:33:15;9.38;;;5.30;;
64938;SDS011;51453;47.738;7.420;2023-09-07T02:35:41;9.43;;;5.30;;
64938;SDS011;51453;47.738;7.420;2023-09-07T02:38:06;6.85;;;5.07;;
64938;SDS011;51453;47.738;7.420;2023-09-07T02:40:32;9.38;;;5.20;;
64938;SDS011;51453;47.738;7.420;2023-09-07T02:42:57;7.80;;;4.85;;
64938;SDS011;51453;47.738;7.420;2023-09-07T02:45:23;7.30;;;5.07;;
64938;SDS011;51453;47.738;7.420;2023-09-07T02:47:49;5.25;;;4.60;;
64938;SDS011;51453;47.738;7.420;2023-09-07T02:50:16;6.90;;;4.97;;
64938;SDS011;51453;47.738;7.420;2023-09-07T02:52:42;5.88;;;4.85;;
64938;SDS011;51453;47.738;7.420;2023-09-07T02:55:08;8.05;;;4.70;;
64938;SDS011;51453;47.738;7.420;2023-09-07T02:57:34;6.85;;;4.88;;
64938;SDS011;51453;47.738;7.420;2023-09-07T03:00:00;5.97;;;5.30;;
64938;SDS011;51453;47.738;7.420;2023-09-07T03:02:33;6.35;;;5.40;;
64938;SDS011;51453;47.738;7.420;2023-09-07T03:04:59;7.07;;;5.35;;
64938;SDS011;51453;47.738;7.420;2023-09-07T03:07:24;7.88;;;5.00;;
64938;SDS011;51453;47.738;7.420;2023-09-07T03:09:51;6.30;;;5.22;;
64938;SDS011;51453;47.738;7.420;2023-09-07T03:12:17;7.72;;;5.50;;
64938;SDS011;51453;47.738;7.420;2023-09-07T03:14:43;8.20;;;5.32;;
64938;SDS011;51453;47.738;7.420;2023-09-07T03:17:11;6.85;;;4.80;;
64938;SDS011;51453;47.738;7.420;2023-09-07T03:19:37;6.10;;;5.22;;
64938;SDS011;51453;47.738;7.420;2023-09-07T03:22:03;6.13;;;5.40;;
64938;SDS011;51453;47.738;7.420;2023-09-07T03:24:28;7.10;;;5.35;;
64938;SDS011;51453;47.738;7.420;2023-09-07T03:26:54;10.10;;;5.35;;
64938;SDS011;51453;47.738;7.420;2023-09-07T03:29:19;8.63;;;5.25;;
64938;SDS011;51453;47.738;7.420;2023-09-07T03:31:45;6.82;;;5.25;;
64938;SDS011;51453;47.738;7.420;2023-09-07T03:34:11;8.15;;;5.65;;
64938;SDS011;51453;47.738;7.420;2023-09-07T03:36:36;7.03;;;5.50;;
64938;SDS011;51453;47.738;7.420;2023-09-07T03:39:02;7.53;;;5.28;;
64938;SDS011;51453;47.738;7.420;2023-09-07T03:41:28;7.50;;;5.40;;
64938;SDS011;51453;47.738;7.420;2023-09-07T03:43:56;7.07;;;5.28;;
64938;SDS011;51453;47.738;7.420;2023-09-07T03:46:21;7.88;;;5.95;;
64938;SDS011;51453;47.738;7.420;2023-09-07T03:48:47;8.10;;;5.60;;
64938;SDS011;51453;47.738;7.420;2023-09-07T03:51:13;6.13;;;5.28;;
64938;SDS011;51453;47.738;7.420;2023-09-07T03:53:38;6.63;;;5.68;;
64938;SDS011;51453;47.738;7.420;2023-09-07T03:56:04;6.07;;;5.20;;
64938;SDS011;51453;47.738;7.420;2023-09-07T03:58:30;7.00;;;5.65;;
64938;SDS011;51453;47.738;7.420;2023-09-07T04:00:58;8.13;;;5.60;;
64938;SDS011;51453;47.738;7.420;2023-09-07T04:03:24;8.90;;;5.43;;
64938;SDS011;51453;47.738;7.420;2023-09-07T04:05:50;7.60;;;5.25;;
64938;SDS011;51453;47.738;7.420;2023-09-07T04:08:16;6.47;;;5.28;;
64938;SDS011;51453;47.738;7.420;2023-09-07T04:10:41;7.88;;;5.70;;
64938;SDS011;51453;47.738;7.420;2023-09-07T04:13:07;11.18;;;5.68;;
64938;SDS011;51453;47.738;7.420;2023-09-07T04:15:33;6.22;;;5.35;;
64938;SDS011;51453;47.738;7.420;2023-09-07T04:18:06;7.15;;;5.95;;
64938;SDS011;51453;47.738;7.420;2023-09-07T04:20:31;7.20;;;5.40;;
64938;SDS011;51453;47.738;7.420;2023-09-07T04:22:57;8.15;;;6.18;;
64938;SDS011;51453;47.738;7.420;2023-09-07T04:25:22;8.52;;;5.40;;
64938;SDS011;51453;47.738;7.420;2023-09-07T04:27:48;7.30;;;5.90;;
64938;SDS011;51453;47.738;7.420;2023-09-07T04:30:14;8.57;;;5.65;;
64938;SDS011;51453;47.738;7.420;2023-09-07T04:32:39;6.10;;;5.50;;
64938;SDS011;51453;47.738;7.420;2023-09-07T04:35:05;7.43;;;5.57;;
64938;SDS011;51453;47.738;7.420;2023-09-07T04:37:32;8.63;;;5.55;;
64938;SDS011;51453;47.738;7.420;2023-09-07T04:39:57;7.13;;;5.80;;
64938;SDS011;51453;47.738;7.420;2023-09-07T04:42:23;6.60;;;5.90;;
64938;SDS011;51453;47.738;7.420;2023-09-07T04:44:48;8.57;;;6.43;;
64938;SDS011;51453;47.738;7.420;2023-09-07T04:47:14;10.07;;;5.82;;
64938;SDS011;51453;47.738;7.420;2023-09-07T04:49:48;7.97;;;5.68;;
64938;SDS011;51453;47.738;7.420;2023-09-07T04:52:15;6.60;;;5.68;;
64938;SDS011;51453;47.738;7.420;2023-09-07T04:54:41;7.13;;;5.93;;
64938;SDS011;51453;47.738;7.420;2023-09-07T04:57:06;7.43;;;6.15;;
64938;SDS011;51453;47.738;7.420;2023-09-07T04:59:32;10.15;;;6.53;;
64938;SDS011;51453;47.738;7.420;2023-09-07T05:02:00;9.40;;;6.20;;
64938;SDS011;51453;47.738;7.420;2023-09-07T05:04:26;9.57;;;6.22;;
64938;SDS011;51453;47.738;7.420;2023-09-07T05:06:53;8.93;;;6.53;;
64938;SDS011;51453;47.738;7.420;2023-09-07T05:09:18;10.43;;;6.10;;
64938;SDS011;51453;47.738;7.420;2023-09-07T05:11:45;7.75;;;5.97;;
64938;SDS011;51453;47.738;7.420;2023-09-07T05:14:11;6.50;;;5.80;;
64938;SDS011;51453;47.738;7.420;2023-09-07T05:16:36;7.82;;;6.18;;
64938;SDS011;51453;47.738;7.420;2023-09-07T05:19:02;8.48;;;6.72;;
64938;SDS011;51453;47.738;7.420;2023-09-07T05:21:28;9.75;;;6.60;;
64938;SDS011;51453;47.738;7.420;2023-09-07T05:23:54;8.48;;;6.60;;
64938;SDS011;51453;47.738;7.420;2023-09-07T05:26:22;11.05;;;6.47;;
64938;SDS011;51453;47.738;7.420;2023-09-07T05:28:49;8.45;;;6.75;;
64938;SDS011;51453;47.738;7.420;2023-09-07T05:31:15;10.52;;;7.13;;
64938;SDS011;51453;47.738;7.420;2023-09-07T05:33:40;8.15;;;6.88;;
64938;SDS011;51453;47.738;7.420;2023-09-07T05:36:06;9.00;;;6.40;;
64938;SDS011;51453;47.738;7.420;2023-09-07T05:38:32;10.40;;;6.90;;
64938;SDS011;51453;47.738;7.420;2023-09-07T05:40:57;10.02;;;7.07;;
64938;SDS011;51453;47.738;7.420;2023-09-07T05:43:23;9.68;;;6.68;;
64938;SDS011;51453;47.738;7.420;2023-09-07T05:45:49;9.00;;;7.15;;
64938;SDS011;51453;47.738;7.420;2023-09-07T05:48:14;8.15;;;7.10;;
64938;SDS011;51453;47.738;7.420;2023-09-07T05:50:43;9.43;;;6.72;;
64938;SDS011;51453;47.738;7.420;2023-09-07T05:53:09;9.00;;;6.85;;
64938;SDS011;51453;47.738;7.420;2023-09-07T05:55:35;8.10;;;6.85;;
64938;SDS011;51453;47.738;7.420;2023-09-07T05:58:03;11.35;;;7.13;;
64938;SDS011;51453;47.738;7.420;2023-09-07T06:00:30;8.43;;;6.88;;
64938;SDS011;51453;47.738;7.420;2023-09-07T06:02:56;11.00;;;6.60;;
64938;SDS011;51453;47.738;7.420;2023-09-07T06:05:21;8.93;;;6.88;;
64938;SDS011;51453;47.738;7.420;2023-09-07T06:07:47;7.95;;;7.15;;
64938;SDS011;51453;47.738;7.420;2023-09-07T06:10:13;7.25;;;6.20;;
64938;SDS011;51453;47.738;7.420;2023-09-07T06:12:39;10.23;;;7.43;;
64938;SDS011;51453;47.738;7.420;2023-09-07T06:15:05;11.95;;;7.00;;
64938;SDS011;51453;47.738;7.420;2023-09-07T06:17:31;12.27;;;7.07;;
64938;SDS011;51453;47.738;7.420;2023-09-07T06:19:57;9.13;;;6.88;;
64938;SDS011;51453;47.738;7.420;2023-09-07T06:22:22;9.32;;;7.28;;
64938;SDS011;51453;47.738;7.420;2023-09-07T06:24:48;8.25;;;6.65;;
64938;SDS011;51453;47.738;7.420;2023-09-07T06:27:14;8.90;;;6.90;;
64938;SDS011;51453;47.738;7.420;2023-09-07T06:29:40;9.10;;;6.78;;
64938;SDS011;51453;47.738;7.420;2023-09-07T06:32:05;8.30;;;6.50;;
64938;SDS011;51453;47.738;7.420;2023-09-07T06:34:31;9.73;;;7.05;;
64938;SDS011;51453;47.738;7.420;2023-09-07T06:36:57;11.43;;;6.93;;
64938;SDS011;51453;47.738;7.420;2023-09-07T06:39:22;10.32;;;6.78;;
64938;SDS011;51453;47.738;7.420;2023-09-07T06:41:48;9.07;;;6.47;;
64938;SDS011;51453;47.738;7.420;2023-09-07T06:44:14;16.65;;;7.22;;
64938;SDS011;51453;47.738;7.420;2023-09-07T06:46:40;8.48;;;6.20;;
64938;SDS011;51453;47.738;7.420;2023-09-07T06:49:05;11.20;;;6.68;;
64938;SDS011;51453;47.738;7.420;2023-09-07T06:51:31;6.78;;;6.07;;
64938;SDS011;51453;47.738;7.420;2023-09-07T06:53:57;7.30;;;6.00;;
64938;SDS011;51453;47.738;7.420;2023-09-07T06:56:23;8.25;;;6.15;;
64938;SDS011;51453;47.738;7.420;2023-09-07T06:58:49;6.32;;;5.55;;
64938;SDS011;51453;47.738;7.420;2023-09-07T07:01:15;5.47;;;4.95;;
64938;SDS011;51453;47.738;7.420;2023-09-07T07:03:40;7.70;;;5.47;;
64938;SDS011;51453;47.738;7.420;2023-09-07T07:06:06;7.20;;;5.50;;
64938;SDS011;51453;47.738;7.420;2023-09-07T07:08:32;6.05;;;5.30;;
64938;SDS011;51453;47.738;7.420;2023-09-07T07:10:58;7.70;;;5.55;;
64938;SDS011;51453;47.738;7.420;2023-09-07T07:13:23;7.90;;;5.40;;
64938;SDS011;51453;47.738;7.420;2023-09-07T07:15:49;6.60;;;5.72;;
64938;SDS011;51453;47.738;7.420;2023-09-07T07:18:15;7.10;;;5.50;;
64938;SDS011;51453;47.738;7.420;2023-09-07T07:20:41;6.53;;;5.13;;
64938;SDS011;51453;47.738;7.420;2023-09-07T07:23:08;5.35;;;4.78;;
64938;SDS011;51453;47.738;7.420;2023-09-07T07:25:35;6.57;;;5.57;;
64938;SDS011;51453;47.738;7.420;2023-09-07T07:28:02;9.20;;;5.32;;
64938;SDS011;51453;47.738;7.420;2023-09-07T07:30:31;7.88;;;5.00;;
64938;SDS011;51453;47.738;7.420;2023-09-07T07:32:57;8.93;;;5.68;;
64938;SDS011;51453;47.738;7.420;2023-09-07T07:35:23;9.52;;;5.60;;
64938;SDS011;51453;47.738;7.420;2023-09-07T07:37:49;8.82;;;5.95;;
64938;SDS011;51453;47.738;7.420;2023-09-07T07:40:15;6.03;;;5.22;;
64938;SDS011;51453;47.738;7.420;2023-09-07T07:42:42;8.57;;;4.82;;
64938;SDS011;51453;47.738;7.420;2023-09-07T07:45:09;8.13;;;5.65;;
64938;SDS011;51453;47.738;7.420;2023-09-07T07:47:35;5.47;;;4.97;;
64938;SDS011;51453;47.738;7.420;2023-09-07T07:50:00;8.55;;;5.68;;
64938;SDS011;51453;47.738;7.420;2023-09-07T07:52:26;6.10;;;5.45;;
64938;SDS011;51453;47.738;7.420;2023-09-07T07:54:53;8.65;;;5.22;;
64938;SDS011;51453;47.738;7.420;2023-09-07T07:57:18;9.10;;;5.25;;
64938;SDS011;51453;47.738;7.420;2023-09-07T07:59:44;7.68;;;5.22;;
64938;SDS011;51453;47.738;7.420;2023-09-07T08:02:09;7.00;;;5.55;;
64938;SDS011;51453;47.738;7.420;2023-09-07T08:04:35;10.23;;;5.20;;
64938;SDS011;51453;47.738;7.420;2023-09-07T08:07:01;6.32;;;5.40;;
64938;SDS011;51453;47.738;7.420;2023-09-07T08:09:30;8.45;;;5.55;;
64938;SDS011;51453;47.738;7.420;2023-09-07T08:11:56;8.20;;;5.65;;
64938;SDS011;51453;47.738;7.420;2023-09-07T08:14:22;9.10;;;4.93;;
64938;SDS011;51453;47.738;7.420;2023-09-07T08:16:49;9.25;;;5.60;;
64938;SDS011;51453;47.738;7.420;2023-09-07T08:19:15;6.40;;;4.90;;
64938;SDS011;51453;47.738;7.420;2023-09-07T08:21:41;5.25;;;4.75;;
64938;SDS011;51453;47.738;7.420;2023-09-07T08:24:07;6.43;;;5.22;;
64938;SDS011;51453;47.738;7.420;2023-09-07T08:26:34;7.97;;;4.97;;
64938;SDS011;51453;47.738;7.420;2023-09-07T08:29:00;7.15;;;4.97;;
64938;SDS011;51453;47.738;7.420;2023-09-07T08:31:30;5.30;;;4.80;;
64938;SDS011;51453;47.738;7.420;2023-09-07T08:34:00;6.43;;;4.80;;
64938;SDS011;51453;47.738;7.420;2023-09-07T08:36:28;5.65;;;4.72;;
64938;SDS011;51453;47.738;7.420;2023-09-07T08:38:57;5.90;;;5.32;;
64938;SDS011;51453;47.738;7.420;2023-09-07T08:41:26;7.50;;;4.97;;
64938;SDS011;51453;47.738;7.420;2023-09-07T08:43:54;5.70;;;4.90;;
64938;SDS011;51453;47.738;7.420;2023-09-07T08:46:22;7.53;;;4.90;;
64938;SDS011;51453;47.738;7.420;2023-09-07T08:48:49;7.57;;;4.72;;
64938;SDS011;51453;47.738;7.420;2023-09-07T08:51:15;7.10;;;4.72;;
64938;SDS011;51453;47.738;7.420;2023-09-07T08:53:42;8.00;;;4.93;;
64938;SDS011;51453;47.738;7.420;2023-09-07T08:56:11;5.65;;;4.80;;
64938;SDS011;51453;47.738;7.420;2023-09-07T08:58:38;6.80;;;5.20;;
64938;SDS011;51453;47.738;7.420;2023-09-07T09:01:05;5.43;;;4.53;;
64938;SDS011;51453;47.738;7.420;2023-09-07T09:03:33;6.32;;;4.90;;
64938;SDS011;51453;47.738;7.420;2023-09-07T09:05:59;6.30;;;5.13;;
64938;SDS011;51453;47.738;7.420;2023-09-07T09:08:25;5.30;;;4.80;;
64938;SDS011;51453;47.738;7.420;2023-09-07T09:11:01;5.82;;;4.95;;
64938;SDS011;51453;47.738;7.420;2023-09-07T09:13:31;6.80;;;4.75;;
64938;SDS011;51453;47.738;7.420;2023-09-07T09:16:00;6.70;;;4.60;;
64938;SDS011;51453;47.738;7.420;2023-09-07T09:18:26;6.47;;;4.70;;
64938;SDS011;51453;47.738;7.420;2023-09-07T09:20:54;4.93;;;4.45;;
64938;SDS011;51453;47.738;7.420;2023-09-07T09:23:20;5.15;;;4.25;;
64938;SDS011;51453;47.738;7.420;2023-09-07T09:25:47;6.20;;;3.80;;
64938;SDS011;51453;47.738;7.420;2023-09-07T09:28:14;6.82;;;4.40;;
64938;SDS011;51453;47.738;7.420;2023-09-07T09:30:40;5.97;;;4.10;;
64938;SDS011;51453;47.738;7.420;2023-09-07T09:33:10;5.15;;;3.97;;
64938;SDS011;51453;47.738;7.420;2023-09-07T09:35:37;4.68;;;4.22;;
64938;SDS011;51453;47.738;7.420;2023-09-07T09:38:03;5.05;;;4.25;;
64938;SDS011;51453;47.738;7.420;2023-09-07T09:40:30;6.07;;;4.38;;
64938;SDS011;51453;47.738;7.420;2023-09-07T09:43:02;4.70;;;4.30;;
64938;SDS011;51453;47.738;7.420;2023-09-07T09:45:30;4.93;;;4.00;;
64938;SDS011;51453;47.738;7.420;2023-09-07T09:47:56;5.88;;;4.45;;
64938;SDS011;51453;47.738;7.420;2023-09-07T09:50:26;5.33;;;4.27;;
64938;SDS011;51453;47.738;7.420;2023-09-07T09:52:53;4.43;;;4.03;;
64938;SDS011;51453;47.738;7.420;2023-09-07T09:55:18;4.57;;;4.15;;
64938;SDS011;51453;47.738;7.420;2023-09-07T09:57:44;5.82;;;4.45;;
64938;SDS011;51453;47.738;7.420;2023-09-07T10:00:10;6.00;;;4.30;;
64938;SDS011;51453;47.738;7.420;2023-09-07T10:03:13;5.68;;;3.83;;
64938;SDS011;51453;47.738;7.420;2023-09-07T10:05:45;4.97;;;4.47;;
64938;SDS011;51453;47.738;7.420;2023-09-07T10:08:15;5.90;;;4.55;;
64938;SDS011;51453;47.738;7.420;2023-09-07T10:10:42;5.38;;;4.57;;
64938;SDS011;51453;47.738;7.420;2023-09-07T10:13:12;5.45;;;4.75;;
64938;SDS011;51453;47.738;7.420;2023-09-07T10:15:39;6.30;;;4.25;;
64938;SDS011;51453;47.738;7.420;2023-09-07T10:20:46;5.50;;;4.40;;
64938;SDS011;51453;47.738;7.420;2023-09-07T10:26:09;4.90;;;4.40;;
64938;SDS011;51453;47.738;7.420;2023-09-07T10:28:40;4.50;;;4.10;;
64938;SDS011;51453;47.738;7.420;2023-09-07T10:31:16;4.90;;;4.40;;
64938;SDS011;51453;47.738;7.420;2023-09-07T10:33:43;5.72;;;4.30;;
64938;SDS011;51453;47.738;7.420;2023-09-07T10:36:09;4.47;;;4.07;;
64938;SDS011;51453;47.738;7.420;2023-09-07T10:38:49;4.60;;;4.20;;
64938;SDS011;51453;47.738;7.420;2023-09-07T10:41:18;6.55;;;4.45;;
64938;SDS011;51453;47.738;7.420;2023-09-07T10:43:51;6.00;;;4.75;;
64938;SDS011;51453;47.738;7.420;2023-09-07T10:46:22;5.55;;;4.55;;
64938;SDS011;51453;47.738;7.420;2023-09-07T10:48:52;4.93;;;4.40;;
64938;SDS011;51453;47.738;7.420;2023-09-07T10:51:18;7.60;;;4.40;;
64938;SDS011;51453;47.738;7.420;2023-09-07T10:53:44;5.28;;;4.38;;
64938;SDS011;51453;47.738;7.420;2023-09-07T10:56:10;5.50;;;4.50;;
64938;SDS011;51453;47.738;7.420;2023-09-07T10:58:37;6.03;;;4.80;;
64938;SDS011;51453;47.738;7.420;2023-09-07T11:01:07;5.35;;;4.75;;
64938;SDS011;51453;47.738;7.420;2023-09-07T11:03:34;4.88;;;4.40;;
64938;SDS011;51453;47.738;7.420;2023-09-07T11:08:51;4.70;;;4.20;;
64938;SDS011;51453;47.738;7.420;2023-09-07T11:11:17;5.40;;;4.78;;
64938;SDS011;51453;47.738;7.420;2023-09-07T11:13:43;4.90;;;4.50;;
64938;SDS011;51453;47.738;7.420;2023-09-07T11:16:09;4.85;;;4.40;;
64938;SDS011;51453;47.738;7.420;2023-09-07T11:18:35;6.30;;;4.22;;
64938;SDS011;51453;47.738;7.420;2023-09-07T11:21:01;6.57;;;4.25;;
64938;SDS011;51453;47.738;7.420;2023-09-07T11:23:32;4.63;;;4.20;;
64938;SDS011;51453;47.738;7.420;2023-09-07T11:26:03;4.68;;;4.22;;
64938;SDS011;51453;47.738;7.420;2023-09-07T11:28:30;7.30;;;4.30;;
64938;SDS011;51453;47.738;7.420;2023-09-07T11:30:57;4.63;;;4.20;;
64938;SDS011;51453;47.738;7.420;2023-09-07T11:33:24;4.90;;;4.43;;
64938;SDS011;51453;47.738;7.420;2023-09-07T11:35:50;5.45;;;4.78;;
64938;SDS011;51453;47.738;7.420;2023-09-07T11:38:21;5.13;;;4.55;;
64938;SDS011;51453;47.738;7.420;2023-09-07T11:40:47;4.88;;;4.38;;
64938;SDS011;51453;47.738;7.420;2023-09-07T11:43:16;6.63;;;4.60;;
64938;SDS011;51453;47.738;7.420;2023-09-07T11:45:46;7.15;;;4.32;;
64938;SDS011;51453;47.738;7.420;2023-09-07T11:48:12;5.10;;;4.60;;
64938;SDS011;51453;47.738;7.420;2023-09-07T11:50:38;4.70;;;4.22;;
64938;SDS011;51453;47.738;7.420;2023-09-07T11:53:05;6.25;;;4.78;;
64938;SDS011;51453;47.738;7.420;2023-09-07T11:55:31;4.70;;;4.20;;
64938;SDS011;51453;47.738;7.420;2023-09-07T11:57:57;7.43;;;4.20;;
64938;SDS011;51453;47.738;7.420;2023-09-07T12:00:23;4.38;;;3.97;;
64938;SDS011;51453;47.738;7.420;2023-09-07T12:02:49;6.75;;;4.15;;
64938;SDS011;51453;47.738;7.420;2023-09-07T12:05:14;6.60;;;4.03;;
64938;SDS011;51453;47.738;7.420;2023-09-07T12:07:43;4.82;;;4.35;;
64938;SDS011;51453;47.738;7.420;2023-09-07T12:10:09;7.35;;;4.53;;
64938;SDS011;51453;47.738;7.420;2023-09-07T12:12:41;5.88;;;4.40;;
64938;SDS011;51453;47.738;7.420;2023-09-07T12:15:08;5.80;;;4.35;;
64938;SDS011;51453;47.738;7.420;2023-09-07T12:17:36;9.02;;;4.63;;
64938;SDS011;51453;47.738;7.420;2023-09-07T12:20:02;6.80;;;4.22;;
64938;SDS011;51453;47.738;7.420;2023-09-07T12:22:28;6.10;;;4.55;;
64938;SDS011;51453;47.738;7.420;2023-09-07T12:24:53;4.60;;;4.20;;
64938;SDS011;51453;47.738;7.420;2023-09-07T12:27:20;4.57;;;4.00;;
64938;SDS011;51453;47.738;7.420;2023-09-07T12:29:46;4.20;;;3.88;;
64938;SDS011;51453;47.738;7.420;2023-09-07T12:32:12;5.95;;;4.40;;
64938;SDS011;51453;47.738;7.420;2023-09-07T12:34:37;5.18;;;3.95;;
64938;SDS011;51453;47.738;7.420;2023-09-07T12:37:04;5.43;;;4.13;;
64938;SDS011;51453;47.738;7.420;2023-09-07T12:39:30;4.93;;;3.63;;
64938;SDS011;51453;47.738;7.420;2023-09-07T12:41:56;4.30;;;3.92;;
64938;SDS011;51453;47.738;7.420;2023-09-07T12:44:22;5.05;;;3.83;;
64938;SDS011;51453;47.738;7.420;2023-09-07T12:46:47;5.43;;;3.80;;
64938;SDS011;51453;47.738;7.420;2023-09-07T12:49:13;5.07;;;3.65;;
64938;SDS011;51453;47.738;7.420;2023-09-07T12:51:40;3.95;;;3.55;;
64938;SDS011;51453;47.738;7.420;2023-09-07T12:54:10;5.13;;;3.38;;
64938;SDS011;51453;47.738;7.420;2023-09-07T12:56:36;6.97;;;3.70;;
64938;SDS011;51453;47.738;7.420;2023-09-07T12:59:01;5.20;;;3.55;;
64938;SDS011;51453;47.738;7.420;2023-09-07T13:01:28;4.05;;;3.30;;
64938;SDS011;51453;47.738;7.420;2023-09-07T13:03:55;3.97;;;3.60;;
64938;SDS011;51453;47.738;7.420;2023-09-07T13:06:21;3.90;;;3.53;;
64938;SDS011;51453;47.738;7.420;2023-09-07T13:08:47;4.95;;;3.80;;
64938;SDS011;51453;47.738;7.420;2023-09-07T13:11:12;6.28;;;3.30;;
64938;SDS011;51453;47.738;7.420;2023-09-07T13:13:38;3.88;;;3.47;;
64938;SDS011;51453;47.738;7.420;2023-09-07T13:16:04;6.30;;;4.10;;
64938;SDS011;51453;47.738;7.420;2023-09-07T13:18:30;5.15;;;3.70;;
64938;SDS011;51453;47.738;7.420;2023-09-07T13:20:56;3.58;;;3.28;;
64938;SDS011;51453;47.738;7.420;2023-09-07T13:23:26;4.45;;;3.60;;
64938;SDS011;51453;47.738;7.420;2023-09-07T13:25:53;3.92;;;3.53;;
64938;SDS011;51453;47.738;7.420;2023-09-07T13:28:22;4.87;;;3.87;;
64938;SDS011;51453;47.738;7.420;2023-09-07T13:30:48;6.07;;;3.55;;
64938;SDS011;51453;47.738;7.420;2023-09-07T13:33:17;6.03;;;3.85;;
64938;SDS011;51453;47.738;7.420;2023-09-07T13:35:43;6.00;;;3.97;;
64938;SDS011;51453;47.738;7.420;2023-09-07T13:38:10;6.82;;;3.67;;
64938;SDS011;51453;47.738;7.420;2023-09-07T13:40:36;6.60;;;4.03;;
64938;SDS011;51453;47.738;7.420;2023-09-07T13:43:01;4.28;;;3.88;;
64938;SDS011;51453;47.738;7.420;2023-09-07T13:45:27;4.13;;;3.72;;
64938;SDS011;51453;47.738;7.420;2023-09-07T13:47:54;5.47;;;3.63;;
64938;SDS011;51453;47.738;7.420;2023-09-07T13:50:20;4.95;;;3.92;;
64938;SDS011;51453;47.738;7.420;2023-09-07T13:52:45;4.47;;;3.90;;
64938;SDS011;51453;47.738;7.420;2023-09-07T13:55:11;5.43;;;3.85;;
64938;SDS011;51453;47.738;7.420;2023-09-07T13:57:37;4.28;;;3.85;;
64938;SDS011;51453;47.738;7.420;2023-09-07T14:00:02;8.70;;;4.18;;
64938;SDS011;51453;47.738;7.420;2023-09-07T14:02:30;5.55;;;4.10;;
64938;SDS011;51453;47.738;7.420;2023-09-07T14:04:57;5.35;;;4.22;;
64938;SDS011;51453;47.738;7.420;2023-09-07T14:07:23;4.65;;;4.07;;
64938;SDS011;51453;47.738;7.420;2023-09-07T14:09:50;7.63;;;4.45;;
64938;SDS011;51453;47.738;7.420;2023-09-07T14:12:19;4.70;;;4.03;;
64938;SDS011;51453;47.738;7.420;2023-09-07T14:14:44;7.15;;;3.65;;
64938;SDS011;51453;47.738;7.420;2023-09-07T14:17:10;7.18;;;4.03;;
64938;SDS011;51453;47.738;7.420;2023-09-07T14:19:36;4.53;;;3.30;;
64938;SDS011;51453;47.738;7.420;2023-09-07T14:22:01;4.72;;;3.75;;
64938;SDS011;51453;47.738;7.420;2023-09-07T14:24:27;5.57;;;3.85;;
64938;SDS011;51453;47.738;7.420;2023-09-07T14:26:52;4.43;;;3.67;;
64938;SDS011;51453;47.738;7.420;2023-09-07T14:29:18;5.53;;;3.83;;
64938;SDS011;51453;47.738;7.420;2023-09-07T14:31:44;4.95;;;3.63;;
64938;SDS011;51453;47.738;7.420;2023-09-07T14:34:10;7.07;;;3.88;;
64938;SDS011;51453;47.738;7.420;2023-09-07T14:36:37;4.95;;;3.60;;
64938;SDS011;51453;47.738;7.420;2023-09-07T14:39:05;5.32;;;3.55;;
64938;SDS011;51453;47.738;7.420;2023-09-07T14:41:32;7.35;;;3.58;;
64938;SDS011;51453;47.738;7.420;2023-09-07T14:43:59;4.95;;;3.67;;
64938;SDS011;51453;47.738;7.420;2023-09-07T14:46:25;4.57;;;3.42;;
64938;SDS011;51453;47.738;7.420;2023-09-07T14:48:50;4.00;;;3.60;;
64938;SDS011;51453;47.738;7.420;2023-09-07T14:51:16;7.80;;;3.72;;
64938;SDS011;51453;47.738;7.420;2023-09-07T14:53:42;5.47;;;3.90;;